sensor_id;sensor_type;location;lat;lon;timestamp;P1;durP1;ratioP1;P2;durP2;ratioP2
32407;SDS011;18869;55.970;37.502;2024-01-11T00:00:38;11.27;;;8.73;;
32407;SDS011;18869;55.970;37.502;2024-01-11T00:03:05;9.70;;;8.30;;
32407;SDS011;18869;55.970;37.502;2024-01-11T00:05:32;8.90;;;8.03;;
32407;SDS011;18869;55.970;37.502;2024-01-11T00:07:59;8.97;;;8.07;;
32407;SDS011;18869;55.970;37.502;2024-01-11T00:10:27;7.87;;;7.07;;
32407;SDS011;18869;55.970;37.502;2024-01-11T00:12:55;9.07;;;6.57;;
32407;SDS011;18869;55.970;37.502;2024-01-11T00:15:21;8.57;;;7.67;;
32407;SDS011;18869;55.970;37.502;2024-01-11T00:17:49;8.17;;;7.13;;
32407;SDS011;18869;55.970;37.502;2024-01-11T00:20:16;8.37;;;7.40;;
32407;SDS011;18869;55.970;37.502;2024-01-11T00:22:43;8.57;;;7.70;;
32407;SDS011;18869;55.970;37.502;2024-01-11T00:25:10;7.67;;;6.97;;
32407;SDS011;18869;55.970;37.502;2024-01-11T00:27:37;7.97;;;7.10;;
32407;SDS011;18869;55.970;37.502;2024-01-11T00:30:08;9.07;;;8.27;;
32407;SDS011;18869;55.970;37.502;2024-01-11T00:32:37;10.63;;;7.30;;
32407;SDS011;18869;55.970;37.502;2024-01-11T00:35:07;9.10;;;7.13;;
32407;SDS011;18869;55.970;37.502;2024-01-11T00:37:34;8.20;;;7.40;;
32407;SDS011;18869;55.970;37.502;2024-01-11T00:40:01;8.33;;;7.63;;
32407;SDS011;18869;55.970;37.502;2024-01-11T00:42:29;7.63;;;7.03;;
32407;SDS011;18869;55.970;37.502;2024-01-11T00:44:57;8.87;;;8.10;;
32407;SDS011;18869;55.970;37.502;2024-01-11T00:47:25;7.03;;;6.23;;
32407;SDS011;18869;55.970;37.502;2024-01-11T00:49:53;7.97;;;7.30;;
32407;SDS011;18869;55.970;37.502;2024-01-11T00:52:20;7.40;;;6.43;;
32407;SDS011;18869;55.970;37.502;2024-01-11T00:54:48;7.33;;;6.63;;
32407;SDS011;18869;55.970;37.502;2024-01-11T00:57:15;6.47;;;5.87;;
32407;SDS011;18869;55.970;37.502;2024-01-11T00:59:42;6.80;;;6.10;;
32407;SDS011;18869;55.970;37.502;2024-01-11T01:02:09;6.93;;;6.20;;
32407;SDS011;18869;55.970;37.502;2024-01-11T01:04:38;7.40;;;6.83;;
32407;SDS011;18869;55.970;37.502;2024-01-11T01:07:05;6.17;;;5.63;;
32407;SDS011;18869;55.970;37.502;2024-01-11T01:09:33;7.07;;;6.47;;
32407;SDS011;18869;55.970;37.502;2024-01-11T01:12:00;6.13;;;5.40;;
32407;SDS011;18869;55.970;37.502;2024-01-11T01:14:27;7.27;;;6.77;;
32407;SDS011;18869;55.970;37.502;2024-01-11T01:16:54;5.33;;;4.93;;
32407;SDS011;18869;55.970;37.502;2024-01-11T01:19:21;5.53;;;5.13;;
32407;SDS011;18869;55.970;37.502;2024-01-11T01:21:49;5.97;;;5.47;;
32407;SDS011;18869;55.970;37.502;2024-01-11T01:24:16;5.57;;;5.07;;
32407;SDS011;18869;55.970;37.502;2024-01-11T01:26:43;6.43;;;6.03;;
32407;SDS011;18869;55.970;37.502;2024-01-11T01:29:10;6.80;;;6.30;;
32407;SDS011;18869;55.970;37.502;2024-01-11T01:31:37;5.90;;;5.50;;
32407;SDS011;18869;55.970;37.502;2024-01-11T01:34:04;6.27;;;5.67;;
32407;SDS011;18869;55.970;37.502;2024-01-11T01:36:33;6.40;;;5.90;;
32407;SDS011;18869;55.970;37.502;2024-01-11T01:39:01;6.13;;;5.63;;
32407;SDS011;18869;55.970;37.502;2024-01-11T01:41:29;6.50;;;6.00;;
32407;SDS011;18869;55.970;37.502;2024-01-11T01:43:56;6.87;;;6.37;;
32407;SDS011;18869;55.970;37.502;2024-01-11T01:46:23;5.80;;;5.37;;
32407;SDS011;18869;55.970;37.502;2024-01-11T01:48:51;5.57;;;5.27;;
32407;SDS011;18869;55.970;37.502;2024-01-11T01:51:20;6.20;;;5.73;;
32407;SDS011;18869;55.970;37.502;2024-01-11T01:53:48;5.53;;;5.13;;
32407;SDS011;18869;55.970;37.502;2024-01-11T01:56:16;5.20;;;4.70;;
32407;SDS011;18869;55.970;37.502;2024-01-11T01:58:43;6.60;;;6.13;;
32407;SDS011;18869;55.970;37.502;2024-01-11T02:01:11;6.30;;;5.80;;
32407;SDS011;18869;55.970;37.502;2024-01-11T02:03:38;5.40;;;5.00;;
32407;SDS011;18869;55.970;37.502;2024-01-11T02:06:06;6.17;;;5.73;;
32407;SDS011;18869;55.970;37.502;2024-01-11T02:08:34;5.53;;;5.13;;
32407;SDS011;18869;55.970;37.502;2024-01-11T02:11:01;5.90;;;5.53;;
32407;SDS011;18869;55.970;37.502;2024-01-11T02:13:28;5.63;;;5.17;;
32407;SDS011;18869;55.970;37.502;2024-01-11T02:15:57;5.07;;;4.73;;
32407;SDS011;18869;55.970;37.502;2024-01-11T02:18:24;4.90;;;4.60;;
32407;SDS011;18869;55.970;37.502;2024-01-11T02:20:51;5.43;;;5.03;;
32407;SDS011;18869;55.970;37.502;2024-01-11T02:23:19;5.93;;;5.53;;
32407;SDS011;18869;55.970;37.502;2024-01-11T02:25:48;5.43;;;5.03;;
32407;SDS011;18869;55.970;37.502;2024-01-11T02:28:15;6.37;;;5.97;;
32407;SDS011;18869;55.970;37.502;2024-01-11T02:30:42;6.57;;;6.13;;
32407;SDS011;18869;55.970;37.502;2024-01-11T02:33:10;4.97;;;4.57;;
32407;SDS011;18869;55.970;37.502;2024-01-11T02:35:42;5.10;;;4.80;;
32407;SDS011;18869;55.970;37.502;2024-01-11T02:38:09;5.20;;;4.87;;
32407;SDS011;18869;55.970;37.502;2024-01-11T02:40:37;4.13;;;3.93;;
32407;SDS011;18869;55.970;37.502;2024-01-11T02:43:08;5.63;;;5.23;;
32407;SDS011;18869;55.970;37.502;2024-01-11T02:45:36;5.97;;;5.57;;
32407;SDS011;18869;55.970;37.502;2024-01-11T02:48:03;4.60;;;4.30;;
32407;SDS011;18869;55.970;37.502;2024-01-11T02:50:30;5.47;;;4.90;;
32407;SDS011;18869;55.970;37.502;2024-01-11T02:52:58;4.87;;;4.47;;
32407;SDS011;18869;55.970;37.502;2024-01-11T02:55:25;5.47;;;5.17;;
32407;SDS011;18869;55.970;37.502;2024-01-11T02:57:52;5.43;;;5.03;;
32407;SDS011;18869;55.970;37.502;2024-01-11T03:00:20;5.90;;;5.50;;
32407;SDS011;18869;55.970;37.502;2024-01-11T03:02:47;5.63;;;5.33;;
32407;SDS011;18869;55.970;37.502;2024-01-11T03:05:14;5.77;;;5.27;;
32407;SDS011;18869;55.970;37.502;2024-01-11T03:07:41;6.03;;;5.53;;
32407;SDS011;18869;55.970;37.502;2024-01-11T03:10:08;5.00;;;4.70;;
32407;SDS011;18869;55.970;37.502;2024-01-11T03:12:35;4.80;;;4.60;;
32407;SDS011;18869;55.970;37.502;2024-01-11T03:15:02;5.37;;;5.03;;
32407;SDS011;18869;55.970;37.502;2024-01-11T03:17:32;4.87;;;4.50;;
32407;SDS011;18869;55.970;37.502;2024-01-11T03:20:03;4.73;;;4.37;;
32407;SDS011;18869;55.970;37.502;2024-01-11T03:22:31;4.90;;;4.60;;
32407;SDS011;18869;55.970;37.502;2024-01-11T03:24:58;4.30;;;4.00;;
32407;SDS011;18869;55.970;37.502;2024-01-11T03:27:25;3.57;;;3.37;;
32407;SDS011;18869;55.970;37.502;2024-01-11T03:29:53;4.10;;;3.87;;
32407;SDS011;18869;55.970;37.502;2024-01-11T03:32:20;4.73;;;4.40;;
32407;SDS011;18869;55.970;37.502;2024-01-11T03:34:48;3.90;;;3.60;;
32407;SDS011;18869;55.970;37.502;2024-01-11T03:37:15;3.70;;;3.50;;
32407;SDS011;18869;55.970;37.502;2024-01-11T03:39:42;4.80;;;4.50;;
32407;SDS011;18869;55.970;37.502;2024-01-11T03:42:09;3.80;;;3.60;;
32407;SDS011;18869;55.970;37.502;2024-01-11T03:44:36;3.73;;;3.53;;
32407;SDS011;18869;55.970;37.502;2024-01-11T03:47:03;4.23;;;3.93;;
32407;SDS011;18869;55.970;37.502;2024-01-11T03:49:31;3.67;;;3.47;;
32407;SDS011;18869;55.970;37.502;2024-01-11T03:51:58;4.40;;;4.10;;
32407;SDS011;18869;55.970;37.502;2024-01-11T03:54:25;4.73;;;3.90;;
32407;SDS011;18869;55.970;37.502;2024-01-11T03:56:52;4.23;;;3.93;;
32407;SDS011;18869;55.970;37.502;2024-01-11T03:59:19;3.97;;;3.57;;
32407;SDS011;18869;55.970;37.502;2024-01-11T04:01:46;4.57;;;4.27;;
32407;SDS011;18869;55.970;37.502;2024-01-11T04:04:13;4.40;;;4.10;;
32407;SDS011;18869;55.970;37.502;2024-01-11T04:06:40;3.80;;;3.60;;
32407;SDS011;18869;55.970;37.502;2024-01-11T04:09:08;5.67;;;5.17;;
32407;SDS011;18869;55.970;37.502;2024-01-11T04:11:37;4.87;;;4.47;;
32407;SDS011;18869;55.970;37.502;2024-01-11T04:14:04;4.30;;;4.00;;
32407;SDS011;18869;55.970;37.502;2024-01-11T04:16:32;4.50;;;4.20;;
32407;SDS011;18869;55.970;37.502;2024-01-11T04:18:59;3.50;;;3.30;;
32407;SDS011;18869;55.970;37.502;2024-01-11T04:21:26;4.37;;;4.10;;
32407;SDS011;18869;55.970;37.502;2024-01-11T04:23:54;4.77;;;4.43;;
32407;SDS011;18869;55.970;37.502;2024-01-11T04:26:22;4.23;;;3.50;;
32407;SDS011;18869;55.970;37.502;2024-01-11T04:28:49;4.03;;;3.73;;
32407;SDS011;18869;55.970;37.502;2024-01-11T04:31:17;4.03;;;3.83;;
32407;SDS011;18869;55.970;37.502;2024-01-11T04:33:44;4.07;;;3.80;;
32407;SDS011;18869;55.970;37.502;2024-01-11T04:36:12;4.20;;;3.97;;
32407;SDS011;18869;55.970;37.502;2024-01-11T04:38:39;6.13;;;4.07;;
32407;SDS011;18869;55.970;37.502;2024-01-11T04:41:07;4.13;;;3.93;;
32407;SDS011;18869;55.970;37.502;2024-01-11T04:43:36;4.50;;;4.20;;
32407;SDS011;18869;55.970;37.502;2024-01-11T04:46:03;4.87;;;4.47;;
32407;SDS011;18869;55.970;37.502;2024-01-11T04:48:38;4.27;;;3.93;;
32407;SDS011;18869;55.970;37.502;2024-01-11T04:51:05;4.33;;;4.03;;
32407;SDS011;18869;55.970;37.502;2024-01-11T04:53:32;6.30;;;4.40;;
32407;SDS011;18869;55.970;37.502;2024-01-11T04:55:59;4.30;;;4.00;;
32407;SDS011;18869;55.970;37.502;2024-01-11T04:58:26;3.40;;;3.20;;
32407;SDS011;18869;55.970;37.502;2024-01-11T05:00:54;3.97;;;3.60;;
32407;SDS011;18869;55.970;37.502;2024-01-11T05:03:21;6.20;;;3.53;;
32407;SDS011;18869;55.970;37.502;2024-01-11T05:05:47;3.40;;;3.20;;
32407;SDS011;18869;55.970;37.502;2024-01-11T05:08:14;3.60;;;3.40;;
32407;SDS011;18869;55.970;37.502;2024-01-11T05:10:42;3.57;;;3.37;;
32407;SDS011;18869;55.970;37.502;2024-01-11T05:13:10;4.03;;;3.67;;
32407;SDS011;18869;55.970;37.502;2024-01-11T05:15:37;3.90;;;3.63;;
32407;SDS011;18869;55.970;37.502;2024-01-11T05:18:05;4.03;;;3.83;;
32407;SDS011;18869;55.970;37.502;2024-01-11T05:20:32;3.97;;;3.67;;
32407;SDS011;18869;55.970;37.502;2024-01-11T05:22:59;3.50;;;3.30;;
32407;SDS011;18869;55.970;37.502;2024-01-11T05:25:27;3.60;;;3.40;;
32407;SDS011;18869;55.970;37.502;2024-01-11T05:27:54;3.40;;;3.20;;
32407;SDS011;18869;55.970;37.502;2024-01-11T05:30:21;3.30;;;3.10;;
32407;SDS011;18869;55.970;37.502;2024-01-11T05:32:48;3.40;;;3.20;;
32407;SDS011;18869;55.970;37.502;2024-01-11T05:35:15;4.00;;;3.80;;
32407;SDS011;18869;55.970;37.502;2024-01-11T05:37:42;3.93;;;3.63;;
32407;SDS011;18869;55.970;37.502;2024-01-11T05:40:10;4.00;;;3.70;;
32407;SDS011;18869;55.970;37.502;2024-01-11T05:42:37;4.00;;;3.73;;
32407;SDS011;18869;55.970;37.502;2024-01-11T05:45:04;5.60;;;3.50;;
32407;SDS011;18869;55.970;37.502;2024-01-11T05:47:32;3.93;;;3.27;;
32407;SDS011;18869;55.970;37.502;2024-01-11T05:49:59;3.43;;;3.17;;
32407;SDS011;18869;55.970;37.502;2024-01-11T05:52:26;3.70;;;3.40;;
32407;SDS011;18869;55.970;37.502;2024-01-11T05:54:53;4.23;;;3.83;;
32407;SDS011;18869;55.970;37.502;2024-01-11T05:57:20;4.40;;;4.07;;
32407;SDS011;18869;55.970;37.502;2024-01-11T05:59:47;3.67;;;3.47;;
32407;SDS011;18869;55.970;37.502;2024-01-11T06:02:14;4.27;;;3.87;;
32407;SDS011;18869;55.970;37.502;2024-01-11T06:04:41;3.97;;;3.67;;
32407;SDS011;18869;55.970;37.502;2024-01-11T06:07:08;4.00;;;3.60;;
32407;SDS011;18869;55.970;37.502;2024-01-11T06:09:35;4.13;;;3.70;;
32407;SDS011;18869;55.970;37.502;2024-01-11T06:12:03;4.20;;;3.90;;
32407;SDS011;18869;55.970;37.502;2024-01-11T06:14:30;3.43;;;3.23;;
32407;SDS011;18869;55.970;37.502;2024-01-11T06:16:57;5.77;;;3.47;;
32407;SDS011;18869;55.970;37.502;2024-01-11T06:19:24;3.77;;;3.57;;
32407;SDS011;18869;55.970;37.502;2024-01-11T06:21:51;4.20;;;3.90;;
32407;SDS011;18869;55.970;37.502;2024-01-11T06:24:17;3.67;;;3.47;;
32407;SDS011;18869;55.970;37.502;2024-01-11T06:26:46;3.93;;;3.73;;
32407;SDS011;18869;55.970;37.502;2024-01-11T06:29:13;4.73;;;4.40;;
32407;SDS011;18869;55.970;37.502;2024-01-11T06:31:40;4.50;;;4.07;;
32407;SDS011;18869;55.970;37.502;2024-01-11T06:34:07;6.17;;;3.50;;
32407;SDS011;18869;55.970;37.502;2024-01-11T06:36:34;3.30;;;3.10;;
32407;SDS011;18869;55.970;37.502;2024-01-11T06:39:01;4.03;;;3.73;;
32407;SDS011;18869;55.970;37.502;2024-01-11T06:41:28;19.90;;;10.77;;
32407;SDS011;18869;55.970;37.502;2024-01-11T06:43:55;32.47;;;15.77;;
32407;SDS011;18869;55.970;37.502;2024-01-11T06:46:22;40.03;;;20.87;;
32407;SDS011;18869;55.970;37.502;2024-01-11T06:48:49;9.83;;;6.83;;
32407;SDS011;18869;55.970;37.502;2024-01-11T06:51:20;5.90;;;4.83;;
32407;SDS011;18869;55.970;37.502;2024-01-11T06:53:47;4.87;;;4.37;;
32407;SDS011;18869;55.970;37.502;2024-01-11T06:56:14;3.53;;;3.33;;
32407;SDS011;18869;55.970;37.502;2024-01-11T06:58:42;3.57;;;3.37;;
32407;SDS011;18869;55.970;37.502;2024-01-11T07:01:10;3.90;;;3.60;;
32407;SDS011;18869;55.970;37.502;2024-01-11T07:03:37;3.27;;;3.00;;
32407;SDS011;18869;55.970;37.502;2024-01-11T07:06:05;5.00;;;3.50;;
32407;SDS011;18869;55.970;37.502;2024-01-11T07:08:32;4.50;;;3.40;;
32407;SDS011;18869;55.970;37.502;2024-01-11T07:11:01;4.40;;;4.00;;
32407;SDS011;18869;55.970;37.502;2024-01-11T07:13:28;4.90;;;3.03;;
32407;SDS011;18869;55.970;37.502;2024-01-11T07:15:55;4.00;;;3.50;;
32407;SDS011;18869;55.970;37.502;2024-01-11T07:18:25;3.57;;;3.03;;
32407;SDS011;18869;55.970;37.502;2024-01-11T07:20:52;4.50;;;3.37;;
32407;SDS011;18869;55.970;37.502;2024-01-11T07:23:19;3.73;;;3.53;;
32407;SDS011;18869;55.970;37.502;2024-01-11T07:25:49;3.03;;;2.83;;
32407;SDS011;18869;55.970;37.502;2024-01-11T07:28:16;3.27;;;2.93;;
32407;SDS011;18869;55.970;37.502;2024-01-11T07:30:43;3.70;;;3.40;;
32407;SDS011;18869;55.970;37.502;2024-01-11T07:33:10;5.23;;;3.53;;
32407;SDS011;18869;55.970;37.502;2024-01-11T07:35:38;3.80;;;3.50;;
32407;SDS011;18869;55.970;37.502;2024-01-11T07:38:05;3.20;;;3.00;;
32407;SDS011;18869;55.970;37.502;2024-01-11T07:40:32;2.83;;;2.73;;
32407;SDS011;18869;55.970;37.502;2024-01-11T07:43:00;3.93;;;3.30;;
32407;SDS011;18869;55.970;37.502;2024-01-11T07:45:26;6.30;;;3.30;;
32407;SDS011;18869;55.970;37.502;2024-01-11T07:47:57;4.13;;;3.80;;
32407;SDS011;18869;55.970;37.502;2024-01-11T07:50:24;7.03;;;3.57;;
32407;SDS011;18869;55.970;37.502;2024-01-11T07:52:54;4.93;;;4.13;;
32407;SDS011;18869;55.970;37.502;2024-01-11T07:55:21;6.70;;;4.50;;
32407;SDS011;18869;55.970;37.502;2024-01-11T07:57:50;4.47;;;3.20;;
32407;SDS011;18869;55.970;37.502;2024-01-11T08:00:17;4.83;;;3.60;;
32407;SDS011;18869;55.970;37.502;2024-01-11T08:02:45;5.97;;;4.57;;
32407;SDS011;18869;55.970;37.502;2024-01-11T08:05:12;5.00;;;3.50;;
32407;SDS011;18869;55.970;37.502;2024-01-11T08:07:38;5.47;;;3.60;;
32407;SDS011;18869;55.970;37.502;2024-01-11T08:10:09;6.33;;;3.33;;
32407;SDS011;18869;55.970;37.502;2024-01-11T08:12:36;3.70;;;3.40;;
32407;SDS011;18869;55.970;37.502;2024-01-11T08:15:03;3.33;;;3.13;;
32407;SDS011;18869;55.970;37.502;2024-01-11T08:17:31;3.47;;;3.17;;
32407;SDS011;18869;55.970;37.502;2024-01-11T08:19:58;3.63;;;3.37;;
32407;SDS011;18869;55.970;37.502;2024-01-11T08:22:25;3.20;;;3.00;;
32407;SDS011;18869;55.970;37.502;2024-01-11T08:24:54;3.97;;;3.67;;
32407;SDS011;18869;55.970;37.502;2024-01-11T08:27:22;3.20;;;3.00;;
32407;SDS011;18869;55.970;37.502;2024-01-11T08:29:49;3.30;;;3.00;;
32407;SDS011;18869;55.970;37.502;2024-01-11T08:32:16;3.00;;;2.90;;
32407;SDS011;18869;55.970;37.502;2024-01-11T08:34:44;2.63;;;2.53;;
32407;SDS011;18869;55.970;37.502;2024-01-11T08:37:11;2.83;;;2.73;;
32407;SDS011;18869;55.970;37.502;2024-01-11T08:39:38;2.77;;;2.67;;
32407;SDS011;18869;55.970;37.502;2024-01-11T08:42:05;3.47;;;3.37;;
32407;SDS011;18869;55.970;37.502;2024-01-11T08:44:32;3.07;;;2.97;;
32407;SDS011;18869;55.970;37.502;2024-01-11T08:47:00;3.47;;;3.37;;
32407;SDS011;18869;55.970;37.502;2024-01-11T08:49:28;3.00;;;2.80;;
32407;SDS011;18869;55.970;37.502;2024-01-11T08:51:54;3.60;;;3.50;;
32407;SDS011;18869;55.970;37.502;2024-01-11T08:54:21;3.43;;;3.30;;
32407;SDS011;18869;55.970;37.502;2024-01-11T08:56:48;2.87;;;2.77;;
32407;SDS011;18869;55.970;37.502;2024-01-11T08:59:15;3.93;;;3.73;;
32407;SDS011;18869;55.970;37.502;2024-01-11T09:01:43;3.23;;;3.10;;
32407;SDS011;18869;55.970;37.502;2024-01-11T09:04:10;3.73;;;3.53;;
32407;SDS011;18869;55.970;37.502;2024-01-11T09:06:37;3.73;;;3.43;;
32407;SDS011;18869;55.970;37.502;2024-01-11T09:09:06;3.50;;;3.30;;
32407;SDS011;18869;55.970;37.502;2024-01-11T09:11:35;3.10;;;3.00;;
32407;SDS011;18869;55.970;37.502;2024-01-11T09:14:02;3.60;;;3.40;;
32407;SDS011;18869;55.970;37.502;2024-01-11T09:16:29;3.80;;;3.60;;
32407;SDS011;18869;55.970;37.502;2024-01-11T09:18:57;3.60;;;3.40;;
32407;SDS011;18869;55.970;37.502;2024-01-11T09:21:25;3.77;;;3.50;;
32407;SDS011;18869;55.970;37.502;2024-01-11T09:23:53;3.57;;;3.37;;
32407;SDS011;18869;55.970;37.502;2024-01-11T09:26:20;4.63;;;3.90;;
32407;SDS011;18869;55.970;37.502;2024-01-11T09:28:48;4.00;;;3.70;;
32407;SDS011;18869;55.970;37.502;2024-01-11T09:31:15;3.93;;;3.73;;
32407;SDS011;18869;55.970;37.502;2024-01-11T09:33:42;3.77;;;3.57;;
32407;SDS011;18869;55.970;37.502;2024-01-11T09:36:12;3.73;;;3.53;;
32407;SDS011;18869;55.970;37.502;2024-01-11T09:38:40;3.20;;;3.10;;
32407;SDS011;18869;55.970;37.502;2024-01-11T09:41:07;3.77;;;3.57;;
32407;SDS011;18869;55.970;37.502;2024-01-11T09:43:36;3.70;;;3.60;;
32407;SDS011;18869;55.970;37.502;2024-01-11T09:46:04;4.47;;;4.27;;
32407;SDS011;18869;55.970;37.502;2024-01-11T09:48:32;4.03;;;3.83;;
32407;SDS011;18869;55.970;37.502;2024-01-11T09:50:59;3.80;;;3.60;;
32407;SDS011;18869;55.970;37.502;2024-01-11T09:53:29;3.77;;;3.57;;
32407;SDS011;18869;55.970;37.502;2024-01-11T09:55:58;4.50;;;4.30;;
32407;SDS011;18869;55.970;37.502;2024-01-11T09:58:25;3.63;;;3.43;;
32407;SDS011;18869;55.970;37.502;2024-01-11T10:00:53;3.70;;;3.50;;
32407;SDS011;18869;55.970;37.502;2024-01-11T10:03:22;3.80;;;3.60;;
32407;SDS011;18869;55.970;37.502;2024-01-11T10:05:49;3.90;;;3.70;;
32407;SDS011;18869;55.970;37.502;2024-01-11T10:08:17;3.60;;;3.30;;
32407;SDS011;18869;55.970;37.502;2024-01-11T10:10:49;4.07;;;3.87;;
32407;SDS011;18869;55.970;37.502;2024-01-11T10:13:16;4.03;;;3.83;;
32407;SDS011;18869;55.970;37.502;2024-01-11T10:15:43;3.90;;;3.63;;
32407;SDS011;18869;55.970;37.502;2024-01-11T10:18:10;3.83;;;3.63;;
32407;SDS011;18869;55.970;37.502;2024-01-11T10:20:38;4.10;;;3.90;;
32407;SDS011;18869;55.970;37.502;2024-01-11T10:23:05;4.17;;;3.97;;
32407;SDS011;18869;55.970;37.502;2024-01-11T10:25:32;4.37;;;4.17;;
32407;SDS011;18869;55.970;37.502;2024-01-11T10:28:00;3.97;;;3.77;;
32407;SDS011;18869;55.970;37.502;2024-01-11T10:30:27;4.87;;;4.53;;
32407;SDS011;18869;55.970;37.502;2024-01-11T10:32:57;4.23;;;4.03;;
32407;SDS011;18869;55.970;37.502;2024-01-11T10:35:25;3.93;;;3.73;;
32407;SDS011;18869;55.970;37.502;2024-01-11T10:37:52;4.10;;;3.90;;
32407;SDS011;18869;55.970;37.502;2024-01-11T10:40:20;5.47;;;4.97;;
32407;SDS011;18869;55.970;37.502;2024-01-11T10:42:51;4.57;;;4.27;;
32407;SDS011;18869;55.970;37.502;2024-01-11T10:45:20;5.53;;;5.23;;
32407;SDS011;18869;55.970;37.502;2024-01-11T10:47:51;3.73;;;3.53;;
32407;SDS011;18869;55.970;37.502;2024-01-11T10:50:21;4.87;;;4.23;;
32407;SDS011;18869;55.970;37.502;2024-01-11T10:52:53;5.70;;;4.50;;
32407;SDS011;18869;55.970;37.502;2024-01-11T10:55:27;4.47;;;4.17;;
32407;SDS011;18869;55.970;37.502;2024-01-11T10:57:55;4.30;;;4.00;;
32407;SDS011;18869;55.970;37.502;2024-01-11T11:00:25;4.77;;;4.27;;
32407;SDS011;18869;55.970;37.502;2024-01-11T11:02:52;4.27;;;4.07;;
32407;SDS011;18869;55.970;37.502;2024-01-11T11:05:23;5.60;;;5.10;;
32407;SDS011;18869;55.970;37.502;2024-01-11T11:07:50;4.93;;;4.63;;
32407;SDS011;18869;55.970;37.502;2024-01-11T11:10:20;4.30;;;4.00;;
32407;SDS011;18869;55.970;37.502;2024-01-11T11:12:48;5.23;;;4.93;;
32407;SDS011;18869;55.970;37.502;2024-01-11T11:15:16;5.13;;;4.80;;
32407;SDS011;18869;55.970;37.502;2024-01-11T11:17:43;5.03;;;4.53;;
32407;SDS011;18869;55.970;37.502;2024-01-11T11:20:12;5.50;;;5.20;;
32407;SDS011;18869;55.970;37.502;2024-01-11T11:22:40;5.53;;;5.10;;
32407;SDS011;18869;55.970;37.502;2024-01-11T11:25:08;5.33;;;5.13;;
32407;SDS011;18869;55.970;37.502;2024-01-11T11:27:36;5.30;;;5.00;;
32407;SDS011;18869;55.970;37.502;2024-01-11T11:30:04;4.47;;;4.27;;
32407;SDS011;18869;55.970;37.502;2024-01-11T11:32:35;4.53;;;4.23;;
32407;SDS011;18869;55.970;37.502;2024-01-11T11:35:04;5.17;;;4.87;;
32407;SDS011;18869;55.970;37.502;2024-01-11T11:37:33;5.53;;;5.23;;
32407;SDS011;18869;55.970;37.502;2024-01-11T11:40:00;4.47;;;4.27;;
32407;SDS011;18869;55.970;37.502;2024-01-11T11:42:30;4.70;;;4.40;;
32407;SDS011;18869;55.970;37.502;2024-01-11T11:44:57;4.03;;;3.80;;
32407;SDS011;18869;55.970;37.502;2024-01-11T11:47:24;5.33;;;5.00;;
32407;SDS011;18869;55.970;37.502;2024-01-11T11:50:04;4.30;;;4.10;;
32407;SDS011;18869;55.970;37.502;2024-01-11T11:52:33;4.87;;;4.57;;
32407;SDS011;18869;55.970;37.502;2024-01-11T11:55:04;5.10;;;4.80;;
32407;SDS011;18869;55.970;37.502;2024-01-11T11:57:33;5.43;;;5.03;;
32407;SDS011;18869;55.970;37.502;2024-01-11T12:00:02;5.90;;;5.57;;
32407;SDS011;18869;55.970;37.502;2024-01-11T12:02:37;4.70;;;4.40;;
32407;SDS011;18869;55.970;37.502;2024-01-11T12:05:08;4.40;;;4.00;;
32407;SDS011;18869;55.970;37.502;2024-01-11T12:07:34;5.37;;;4.97;;
32407;SDS011;18869;55.970;37.502;2024-01-11T12:10:01;5.00;;;4.63;;
32407;SDS011;18869;55.970;37.502;2024-01-11T12:12:30;4.90;;;4.60;;
32407;SDS011;18869;55.970;37.502;2024-01-11T12:14:57;5.17;;;4.67;;
32407;SDS011;18869;55.970;37.502;2024-01-11T12:17:25;5.10;;;4.80;;
32407;SDS011;18869;55.970;37.502;2024-01-11T12:19:52;4.93;;;4.63;;
32407;SDS011;18869;55.970;37.502;2024-01-11T12:22:20;6.10;;;5.80;;
32407;SDS011;18869;55.970;37.502;2024-01-11T12:24:47;4.97;;;4.67;;
32407;SDS011;18869;55.970;37.502;2024-01-11T12:27:15;4.77;;;4.57;;
32407;SDS011;18869;55.970;37.502;2024-01-11T12:29:43;4.97;;;4.50;;
32407;SDS011;18869;55.970;37.502;2024-01-11T12:32:10;10.97;;;4.60;;
32407;SDS011;18869;55.970;37.502;2024-01-11T12:34:37;4.90;;;4.60;;
32407;SDS011;18869;55.970;37.502;2024-01-11T12:37:05;6.27;;;5.87;;
32407;SDS011;18869;55.970;37.502;2024-01-11T12:39:33;6.80;;;5.63;;
32407;SDS011;18869;55.970;37.502;2024-01-11T12:42:03;5.67;;;5.37;;
32407;SDS011;18869;55.970;37.502;2024-01-11T12:44:30;5.70;;;5.40;;
32407;SDS011;18869;55.970;37.502;2024-01-11T12:46:58;5.60;;;5.20;;
32407;SDS011;18869;55.970;37.502;2024-01-11T12:49:25;5.93;;;5.53;;
32407;SDS011;18869;55.970;37.502;2024-01-11T12:51:52;5.90;;;5.50;;
32407;SDS011;18869;55.970;37.502;2024-01-11T12:54:20;5.70;;;5.30;;
32407;SDS011;18869;55.970;37.502;2024-01-11T12:56:48;6.20;;;5.80;;
32407;SDS011;18869;55.970;37.502;2024-01-11T12:59:16;6.53;;;6.13;;
32407;SDS011;18869;55.970;37.502;2024-01-11T13:01:43;6.30;;;5.90;;
32407;SDS011;18869;55.970;37.502;2024-01-11T13:04:10;5.67;;;5.17;;
32407;SDS011;18869;55.970;37.502;2024-01-11T13:06:39;5.53;;;5.17;;
32407;SDS011;18869;55.970;37.502;2024-01-11T13:09:06;5.63;;;5.33;;
32407;SDS011;18869;55.970;37.502;2024-01-11T13:11:34;5.77;;;5.47;;
32407;SDS011;18869;55.970;37.502;2024-01-11T13:14:02;5.93;;;5.50;;
32407;SDS011;18869;55.970;37.502;2024-01-11T13:16:32;5.73;;;5.23;;
32407;SDS011;18869;55.970;37.502;2024-01-11T13:18:59;6.40;;;5.97;;
32407;SDS011;18869;55.970;37.502;2024-01-11T13:21:26;5.83;;;5.40;;
32407;SDS011;18869;55.970;37.502;2024-01-11T13:23:53;5.57;;;5.03;;
32407;SDS011;18869;55.970;37.502;2024-01-11T13:26:21;6.30;;;5.80;;
32407;SDS011;18869;55.970;37.502;2024-01-11T13:28:48;6.00;;;5.63;;
32407;SDS011;18869;55.970;37.502;2024-01-11T13:31:18;5.97;;;5.67;;
32407;SDS011;18869;55.970;37.502;2024-01-11T13:33:46;6.70;;;6.20;;
32407;SDS011;18869;55.970;37.502;2024-01-11T13:36:14;6.87;;;6.47;;
32407;SDS011;18869;55.970;37.502;2024-01-11T13:38:41;6.30;;;5.80;;
32407;SDS011;18869;55.970;37.502;2024-01-11T13:41:09;6.17;;;5.77;;
32407;SDS011;18869;55.970;37.502;2024-01-11T13:43:35;5.93;;;5.53;;
32407;SDS011;18869;55.970;37.502;2024-01-11T13:46:02;6.37;;;5.80;;
32407;SDS011;18869;55.970;37.502;2024-01-11T13:48:31;6.17;;;5.80;;
32407;SDS011;18869;55.970;37.502;2024-01-11T13:50:58;6.60;;;6.00;;
32407;SDS011;18869;55.970;37.502;2024-01-11T13:53:25;6.20;;;5.80;;
32407;SDS011;18869;55.970;37.502;2024-01-11T13:55:52;6.40;;;6.00;;
32407;SDS011;18869;55.970;37.502;2024-01-11T13:58:19;7.43;;;6.93;;
32407;SDS011;18869;55.970;37.502;2024-01-11T14:00:46;5.63;;;5.13;;
32407;SDS011;18869;55.970;37.502;2024-01-11T14:03:14;6.60;;;6.10;;
32407;SDS011;18869;55.970;37.502;2024-01-11T14:05:43;6.73;;;6.23;;
32407;SDS011;18869;55.970;37.502;2024-01-11T14:08:09;6.10;;;5.67;;
32407;SDS011;18869;55.970;37.502;2024-01-11T14:10:38;7.47;;;6.77;;
32407;SDS011;18869;55.970;37.502;2024-01-11T14:13:05;8.80;;;8.03;;
32407;SDS011;18869;55.970;37.502;2024-01-11T14:15:32;5.43;;;4.93;;
32407;SDS011;18869;55.970;37.502;2024-01-11T14:17:59;5.87;;;5.33;;
32407;SDS011;18869;55.970;37.502;2024-01-11T14:20:26;6.67;;;6.07;;
32407;SDS011;18869;55.970;37.502;2024-01-11T14:22:54;6.20;;;5.80;;
32407;SDS011;18869;55.970;37.502;2024-01-11T14:25:23;5.63;;;5.23;;
32407;SDS011;18869;55.970;37.502;2024-01-11T14:27:50;6.03;;;5.63;;
32407;SDS011;18869;55.970;37.502;2024-01-11T14:30:18;6.03;;;5.53;;
32407;SDS011;18869;55.970;37.502;2024-01-11T14:32:45;6.60;;;6.03;;
32407;SDS011;18869;55.970;37.502;2024-01-11T14:35:12;6.67;;;6.27;;